X  Cerrar Datos meteorológicos de aviación METAR     EDDK Cologne Bonn Airport
Temperatura
57°F Temperatura
55°F Punto de rocío
94% Humedad



Viento
5 MPH
8 KM/H
2 M/S
4 NUDO



200°
SSO
Condiciones actuales

Nubes mayormente dispersas Nubes mayormente dispersas
Presión 1007.79 (hPa) - 29.76 (inHg)
Visibilidad 6 (milla) - 9.7 (km)
Aeropuerto
Código de aeropuerto EDDK

localidad: Cologne Bonn Airport
Distancia: 56 (mi)

Metar:
EDDK 220550Z AUTO 20004KT 160V220 9999 SCT019 OVC027 14/13 Q1008 NOSIG

Hora: 2024-05-22 07:50 CEST